Time;durP1;ratioP1;P1;durP2;ratioP2;P2;SDS_P1;SDS_P2;PMS_P1;PMS_P2;Temp;Humidity;BMP_temperature;BMP_pressure;BME280_temperature;BME280_humidity;BME280_pressure;Samples;Min_cycle;Max_cycle;Signal;HPM_P1;HPM_P2
2023/09/27 00:00:30;;;;;;;21.63;19.48;;;;;;;;;;5106033;27;20785;-76
2023/09/27 00:02:57;;;;;;;23.13;20.30;;;;;;;;;;5105658;27;20043;-77
2023/09/27 00:05:24;;;;;;;21.05;18.85;;;;;;;;;;5124087;27;20114;-76
2023/09/27 00:07:51;;;;;;;20.75;18.58;;;;;;;;;;5102175;27;20042;-77
2023/09/27 00:10:18;;;;;;;23.00;19.65;;;;;;;;;;5108462;27;20063;-77
2023/09/27 00:12:45;;;;;;;21.33;19.02;;;;;;;;;;5116485;27;20047;-77
2023/09/27 00:15:12;;;;;;;21.48;19.20;;;;;;;;;;5118122;27;20059;-76
2023/09/27 00:17:38;;;;;;;21.92;18.95;;;;;;;;;;5117279;27;20039;-77
2023/09/27 00:20:06;;;;;;;22.25;19.88;;;;;;;;;;5113407;27;20068;-77
2023/09/27 00:22:33;;;;;;;22.80;20.05;;;;;;;;;;5117068;27;20043;-77
2023/09/27 00:25:00;;;;;;;22.27;20.08;;;;;;;;;;5132210;27;20051;-76
2023/09/27 00:27:26;;;;;;;22.98;20.45;;;;;;;;;;5114015;27;20071;-77
2023/09/27 00:29:53;;;;;;;21.55;19.35;;;;;;;;;;5120484;27;20044;-77
2023/09/27 00:32:19;;;;;;;23.17;20.30;;;;;;;;;;5118100;27;20062;-77
2023/09/27 00:34:45;;;;;;;20.85;18.60;;;;;;;;;;5106436;27;20050;-77
2023/09/27 00:37:11;;;;;;;21.95;19.75;;;;;;;;;;5114266;27;20039;-76
2023/09/27 00:39:39;;;;;;;21.65;18.90;;;;;;;;;;5107965;27;20062;-77
2023/09/27 00:42:05;;;;;;;21.80;19.55;;;;;;;;;;5126006;27;20130;-76
2023/09/27 00:44:31;;;;;;;20.77;18.65;;;;;;;;;;5104770;27;20051;-77
2023/09/27 00:46:58;;;;;;;21.83;19.52;;;;;;;;;;5124756;27;20099;-77
2023/09/27 00:49:24;;;;;;;23.63;19.25;;;;;;;;;;5118656;27;20077;-77
2023/09/27 00:51:51;;;;;;;21.20;18.90;;;;;;;;;;5123446;27;20062;-77
2023/09/27 00:54:17;;;;;;;22.83;18.85;;;;;;;;;;5114165;27;20046;-77
2023/09/27 00:56:44;;;;;;;20.42;18.15;;;;;;;;;;5114672;27;20100;-77
2023/09/27 00:59:13;;;;;;;19.02;17.13;;;;;;;;;;5117927;27;20122;-77
2023/09/27 01:01:39;;;;;;;19.83;17.73;;;;;;;;;;5106115;27;20639;-76
2023/09/27 01:04:05;;;;;;;21.27;17.60;;;;;;;;;;5106276;27;20129;-77
2023/09/27 01:06:32;;;;;;;19.67;17.67;;;;;;;;;;5128145;27;20447;-76
2023/09/27 01:08:58;;;;;;;20.55;17.92;;;;;;;;;;5126997;27;20047;-77
2023/09/27 01:11:24;;;;;;;20.92;18.70;;;;;;;;;;5107352;27;22044;-77
2023/09/27 01:13:50;;;;;;;21.48;18.38;;;;;;;;;;5104193;27;20043;-76
2023/09/27 01:16:17;;;;;;;21.45;19.15;;;;;;;;;;5115886;27;20057;-77
2023/09/27 01:18:43;;;;;;;22.77;19.65;;;;;;;;;;5101346;27;20052;-77
2023/09/27 01:21:09;;;;;;;23.90;20.27;;;;;;;;;;5078870;28;20403;-77
2023/09/27 01:23:37;;;;;;;24.75;19.25;;;;;;;;;;5089771;28;20070;-77
2023/09/27 01:26:03;;;;;;;21.45;19.33;;;;;;;;;;5089749;28;20126;-77
2023/09/27 01:28:30;;;;;;;21.42;19.08;;;;;;;;;;5085371;28;20539;-77
2023/09/27 01:30:56;;;;;;;23.05;19.23;;;;;;;;;;5078725;28;20052;-77
2023/09/27 01:33:22;;;;;;;20.52;16.98;;;;;;;;;;5077268;28;20554;-77
2023/09/27 01:35:48;;;;;;;22.27;17.20;;;;;;;;;;5082228;28;20055;-77
2023/09/27 01:38:15;;;;;;;25.05;18.13;;;;;;;;;;5086793;28;20048;-80
2023/09/27 01:40:42;;;;;;;18.50;15.95;;;;;;;;;;5084650;28;20048;-79
2023/09/27 01:43:08;;;;;;;20.80;15.75;;;;;;;;;;5082849;28;20436;-79
2023/09/27 01:45:34;;;;;;;17.58;14.07;;;;;;;;;;5079172;28;20048;-80
2023/09/27 01:48:01;;;;;;;23.45;14.85;;;;;;;;;;5085896;28;20036;-80
2023/09/27 01:50:28;;;;;;;19.80;14.85;;;;;;;;;;5079730;28;20056;-80
2023/09/27 01:52:57;;;;;;;20.45;15.18;;;;;;;;;;5083305;28;20047;-77
2023/09/27 01:55:24;;;;;;;18.48;15.07;;;;;;;;;;5083003;28;20062;-76
2023/09/27 01:57:50;;;;;;;20.92;14.98;;;;;;;;;;5083183;28;20048;-77
2023/09/27 02:00:17;;;;;;;17.17;14.75;;;;;;;;;;5085210;28;20456;-77
2023/09/27 02:02:50;;;;;;;19.33;15.05;;;;;;;;;;5082779;28;20048;-76
2023/09/27 02:05:16;;;;;;;;;;;;;;;;;;5086562;28;20513;-77
2023/09/27 02:07:42;;;;;;;19.02;15.60;;;;;;;;;;5088161;28;19920;-77
2023/09/27 02:10:09;;;;;;;19.48;15.45;;;;;;;;;;5078507;28;20579;-77
2023/09/27 02:12:36;;;;;;;19.38;14.63;;;;;;;;;;5082644;28;20052;-77
2023/09/27 02:15:03;;;;;;;21.20;15.38;;;;;;;;;;5076424;28;20494;-77
2023/09/27 02:17:29;;;;;;;22.27;15.32;;;;;;;;;;5087323;28;20052;-76
2023/09/27 02:19:55;;;;;;;24.00;15.70;;;;;;;;;;5090963;28;20449;-77
2023/09/27 02:22:22;;;;;;;20.50;16.25;;;;;;;;;;5119632;27;20651;-76
2023/09/27 02:24:48;;;;;;;20.02;16.70;;;;;;;;;;5107813;27;20058;-76
2023/09/27 02:27:15;;;;;;;21.65;16.88;;;;;;;;;;5106508;28;20047;-77
2023/09/27 02:29:42;;;;;;;22.13;18.20;;;;;;;;;;5108474;28;20475;-77
2023/09/27 02:32:08;;;;;;;23.98;18.05;;;;;;;;;;5104904;28;20075;-77
2023/09/27 02:34:34;;;;;;;21.52;19.23;;;;;;;;;;5109239;28;20035;-77
2023/09/27 02:37:00;;;;;;;24.63;19.92;;;;;;;;;;5104154;28;20040;-77
2023/09/27 02:39:28;;;;;;;23.55;19.73;;;;;;;;;;5105402;28;20058;-77
2023/09/27 02:41:54;;;;;;;23.60;19.67;;;;;;;;;;5108606;28;20055;-77
2023/09/27 02:44:21;;;;;;;22.85;20.30;;;;;;;;;;5104658;28;20043;-77
2023/09/27 02:46:47;;;;;;;25.35;20.83;;;;;;;;;;5109388;28;20047;-78
2023/09/27 02:49:16;;;;;;;29.25;21.17;;;;;;;;;;5107268;28;20039;-77
2023/09/27 02:51:42;;;;;;;25.90;20.05;;;;;;;;;;5109441;28;20057;-77
2023/09/27 02:54:08;;;;;;;27.08;19.77;;;;;;;;;;5108699;28;20039;-77
2023/09/27 02:56:34;;;;;;;22.25;18.95;;;;;;;;;;5104247;28;20048;-77
2023/09/27 02:59:00;;;;;;;22.83;19.52;;;;;;;;;;5102434;28;20040;-77
2023/09/27 03:01:27;;;;;;;25.45;19.10;;;;;;;;;;5107359;28;20085;-76
2023/09/27 03:03:55;;;;;;;24.55;19.23;;;;;;;;;;5109810;28;20053;-76
2023/09/27 03:06:21;;;;;;;25.55;20.05;;;;;;;;;;5107479;28;20478;-76
2023/09/27 03:08:48;;;;;;;24.88;19.13;;;;;;;;;;5109019;28;20561;-77
2023/09/27 03:11:14;;;;;;;24.05;18.40;;;;;;;;;;5104244;28;20039;-76
2023/09/27 03:13:40;;;;;;;27.70;19.50;;;;;;;;;;5108167;28;20044;-77
2023/09/27 03:16:07;;;;;;;24.90;18.30;;;;;;;;;;5099990;28;20077;-76
2023/09/27 03:18:33;;;;;;;25.15;18.88;;;;;;;;;;5114759;27;20126;-77
2023/09/27 03:20:59;;;;;;;27.58;19.23;;;;;;;;;;5109610;27;20050;-77
2023/09/27 03:23:29;;;;;;;29.85;19.95;;;;;;;;;;5131043;27;20069;-76
2023/09/27 03:25:56;;;;;;;24.38;19.58;;;;;;;;;;5125720;27;20052;-77
2023/09/27 03:28:23;;;;;;;26.73;19.88;;;;;;;;;;5114268;27;20138;-76
2023/09/27 03:30:49;;;;;;;23.90;19.40;;;;;;;;;;5119459;27;20050;-77
2023/09/27 03:33:15;;;;;;;27.45;20.02;;;;;;;;;;5128775;27;20095;-77
2023/09/27 03:35:41;;;;;;;27.08;20.05;;;;;;;;;;5125163;27;20387;-77
2023/09/27 03:38:07;;;;;;;28.60;20.70;;;;;;;;;;5127261;27;20051;-77
2023/09/27 03:40:33;;;;;;;29.27;21.05;;;;;;;;;;5111089;27;20502;-76
2023/09/27 03:42:59;;;;;;;23.52;20.23;;;;;;;;;;5102751;27;20124;-77
2023/09/27 03:45:26;;;;;;;28.35;21.67;;;;;;;;;;5107662;27;20039;-77
2023/09/27 03:47:52;;;;;;;30.42;21.27;;;;;;;;;;5126540;27;20498;-77
2023/09/27 03:50:18;;;;;;;31.42;21.98;;;;;;;;;;5115307;27;20042;-77
2023/09/27 03:52:44;;;;;;;34.45;21.73;;;;;;;;;;5126284;27;20176;-76
2023/09/27 03:55:11;;;;;;;33.83;23.55;;;;;;;;;;5099549;28;20046;-77
2023/09/27 03:57:37;;;;;;;33.75;23.65;;;;;;;;;;5129030;27;20054;-77
2023/09/27 04:00:13;;;;;;;34.67;24.23;;;;;;;;;;5121938;27;20064;-76
2023/09/27 04:02:39;;;;;;;32.58;23.05;;;;;;;;;;5128736;27;20047;-77
2023/09/27 04:05:05;;;;;;;32.80;23.10;;;;;;;;;;5119319;27;20130;-77
2023/09/27 04:07:31;;;;;;;32.92;23.83;;;;;;;;;;5110524;27;20043;-77
2023/09/27 04:09:57;;;;;;;33.55;24.17;;;;;;;;;;5109481;27;20110;-76
2023/09/27 04:12:24;;;;;;;31.00;23.77;;;;;;;;;;5115713;27;20113;-77
2023/09/27 04:14:50;;;;;;;33.65;23.98;;;;;;;;;;5119481;27;20104;-77
2023/09/27 04:17:15;;;;;;;34.28;24.83;;;;;;;;;;5121945;27;20071;-77
2023/09/27 04:19:42;;;;;;;33.75;24.45;;;;;;;;;;5126895;27;20130;-77
2023/09/27 04:22:08;;;;;;;36.58;24.63;;;;;;;;;;5105073;27;20104;-76
2023/09/27 04:24:34;;;;;;;34.72;24.48;;;;;;;;;;5105008;27;20052;-77
2023/09/27 04:27:00;;;;;;;37.92;24.73;;;;;;;;;;5109780;27;20398;-77
2023/09/27 04:29:26;;;;;;;36.97;24.80;;;;;;;;;;5114222;27;20078;-77
2023/09/27 04:31:52;;;;;;;33.30;25.52;;;;;;;;;;5121000;27;20766;-76
2023/09/27 04:34:18;;;;;;;35.38;23.55;;;;;;;;;;5121396;27;20043;-77
2023/09/27 04:36:44;;;;;;;33.30;23.20;;;;;;;;;;5107987;28;20039;-77
2023/09/27 04:39:13;;;;;;;30.35;21.55;;;;;;;;;;5121786;27;20043;-77
2023/09/27 04:41:40;;;;;;;34.88;22.95;;;;;;;;;;5121312;27;20043;-77
2023/09/27 04:44:06;;;;;;;33.15;22.23;;;;;;;;;;5112984;27;20058;-77
2023/09/27 04:46:41;;;;;;;34.05;21.58;;;;;;;;;;5114529;27;20125;-77
2023/09/27 04:49:10;;;;;;;35.33;21.73;;;;;;;;;;5103676;27;20040;-77
2023/09/27 04:51:36;;;;;;;31.85;19.88;;;;;;;;;;5125955;27;20054;-77
2023/09/27 04:54:03;;;;;;;31.10;20.48;;;;;;;;;;5103680;27;20035;-76
2023/09/27 04:56:30;;;;;;;37.25;20.42;;;;;;;;;;5105444;27;20039;-77
2023/09/27 04:59:01;;;;;;;32.38;20.38;;;;;;;;;;5114309;27;20157;-76
2023/09/27 05:01:27;;;;;;;37.38;22.13;;;;;;;;;;5121839;27;20100;-76
2023/09/27 05:03:56;;;;;;;32.05;21.35;;;;;;;;;;5118706;27;20043;-77
2023/09/27 05:06:22;;;;;;;44.67;21.95;;;;;;;;;;5112074;27;20078;-77
2023/09/27 05:08:50;;;;;;;34.63;21.40;;;;;;;;;;5120450;27;20059;-77
2023/09/27 05:11:18;;;;;;;33.50;20.67;;;;;;;;;;5118657;27;20047;-77
2023/09/27 05:13:45;;;;;;;34.58;21.02;;;;;;;;;;5103398;27;20043;-76
2023/09/27 05:16:11;;;;;;;35.63;21.63;;;;;;;;;;5114123;27;20121;-76
2023/09/27 05:18:37;;;;;;;37.00;21.13;;;;;;;;;;5117587;27;20109;-77
2023/09/27 05:21:06;;;;;;;52.30;32.60;;;;;;;;;;5122398;27;20070;-77
2023/09/27 05:23:33;;;;;;;76.22;50.22;;;;;;;;;;5108678;27;20043;-76
2023/09/27 05:25:59;;;;;;;52.42;35.05;;;;;;;;;;5129461;27;20091;-77
2023/09/27 05:28:25;;;;;;;45.35;26.40;;;;;;;;;;5109018;27;20043;-77
2023/09/27 05:30:52;;;;;;;33.67;20.45;;;;;;;;;;5117606;27;20689;-77
2023/09/27 05:33:18;;;;;;;37.15;21.73;;;;;;;;;;5108219;27;20134;-77
2023/09/27 05:35:44;;;;;;;34.15;20.48;;;;;;;;;;5112296;27;20506;-77
2023/09/27 05:38:10;;;;;;;36.10;21.15;;;;;;;;;;5123605;27;20047;-77
2023/09/27 05:40:36;;;;;;;28.48;20.60;;;;;;;;;;5118050;27;20089;-77
2023/09/27 05:43:02;;;;;;;32.10;19.98;;;;;;;;;;5101989;27;20039;-76
2023/09/27 05:45:29;;;;;;;34.08;20.67;;;;;;;;;;5101630;27;20104;-78
2023/09/27 05:47:58;;;;;;;30.48;20.25;;;;;;;;;;5109680;27;20043;-77
2023/09/27 05:50:24;;;;;;;30.13;18.15;;;;;;;;;;5118854;27;20048;-77
2023/09/27 05:52:50;;;;;;;30.65;17.90;;;;;;;;;;5106041;27;20046;-78
2023/09/27 05:55:16;;;;;;;31.23;18.63;;;;;;;;;;5091476;27;20055;-77
2023/09/27 05:57:42;;;;;;;28.13;17.70;;;;;;;;;;5103257;27;20375;-77
2023/09/27 06:00:37;;;;;;;25.48;17.10;;;;;;;;;;5097459;27;20048;-76
2023/09/27 06:02:54;;;;;;;31.73;17.88;;;;;;;;;;5107903;27;20051;-78
2023/09/27 06:05:20;;;;;;;26.73;16.38;;;;;;;;;;5101097;27;20043;-76
2023/09/27 06:07:46;;;;;;;27.30;16.83;;;;;;;;;;5100166;27;20067;-77
2023/09/27 06:10:12;;;;;;;30.08;16.77;;;;;;;;;;5105848;27;20415;-77
2023/09/27 06:12:45;;;;;;;25.65;15.60;;;;;;;;;;5111556;27;20039;-77
2023/09/27 06:15:14;;;;;;;30.67;15.35;;;;;;;;;;5116457;27;20073;-77
2023/09/27 06:17:40;;;;;;;27.85;14.32;;;;;;;;;;5117793;27;20059;-77
2023/09/27 06:20:11;;;;;;;25.65;15.05;;;;;;;;;;5106459;27;20058;-76
2023/09/27 06:22:38;;;;;;;23.70;13.85;;;;;;;;;;5105311;27;20034;-76
2023/09/27 06:25:05;;;;;;;26.92;13.60;;;;;;;;;;5116876;27;20047;-76
2023/09/27 06:27:31;;;;;;;22.02;13.02;;;;;;;;;;5110564;28;20051;-76
2023/09/27 06:29:57;;;;;;;22.33;13.50;;;;;;;;;;5101150;27;20042;-75
2023/09/27 06:32:24;;;;;;;27.48;16.08;;;;;;;;;;5126560;27;20035;-76
2023/09/27 06:34:52;;;;;;;27.67;16.70;;;;;;;;;;5112743;27;20110;-76
2023/09/27 06:37:18;;;;;;;29.75;16.50;;;;;;;;;;5122293;27;20058;-76
2023/09/27 06:39:44;;;;;;;29.95;18.48;;;;;;;;;;5101744;28;20051;-77
2023/09/27 06:42:10;;;;;;;34.33;18.70;;;;;;;;;;5106608;27;20039;-76
2023/09/27 06:44:37;;;;;;;25.23;18.05;;;;;;;;;;5099851;28;20047;-77
2023/09/27 06:47:04;;;;;;;32.38;19.40;;;;;;;;;;5122228;27;20054;-76
2023/09/27 06:49:30;;;;;;;28.17;20.00;;;;;;;;;;5111458;28;20050;-77
2023/09/27 06:51:58;;;;;;;29.83;21.10;;;;;;;;;;5099891;27;20100;-77
2023/09/27 06:54:27;;;;;;;33.30;20.95;;;;;;;;;;5107828;28;20073;-77
2023/09/27 06:56:53;;;;;;;27.20;20.25;;;;;;;;;;5101749;28;20043;-77
2023/09/27 06:59:19;;;;;;;32.40;21.73;;;;;;;;;;5115430;28;20058;-79
2023/09/27 07:01:45;;;;;;;34.88;24.38;;;;;;;;;;5101464;28;20051;-78
2023/09/27 07:04:11;;;;;;;30.80;24.20;;;;;;;;;;5053203;28;20048;-77
2023/09/27 07:06:37;;;;;;;34.65;25.02;;;;;;;;;;5043075;28;20463;-77
2023/09/27 07:09:04;;;;;;;34.80;27.08;;;;;;;;;;5064458;28;20044;-78
2023/09/27 07:11:30;;;;;;;33.65;26.27;;;;;;;;;;5046070;28;20040;-77
2023/09/27 07:13:56;;;;;;;34.58;27.98;;;;;;;;;;5044179;28;20072;-77
2023/09/27 07:16:26;;;;;;;39.97;29.50;;;;;;;;;;5054981;28;20111;-78
2023/09/27 07:18:53;;;;;;;37.25;27.95;;;;;;;;;;5053412;28;20061;-78
2023/09/27 07:21:20;;;;;;;32.10;28.13;;;;;;;;;;5061877;28;20522;-78
2023/09/27 07:23:47;;;;;;;31.50;28.08;;;;;;;;;;5064255;28;20041;-77
2023/09/27 07:26:16;;;;;;;35.28;28.73;;;;;;;;;;5069623;28;20079;-77
2023/09/27 07:28:43;;;;;;;36.95;29.17;;;;;;;;;;5052601;28;20090;-78
2023/09/27 07:31:09;;;;;;;35.78;28.67;;;;;;;;;;5052437;28;20072;-78
2023/09/27 07:33:36;;;;;;;33.83;28.00;;;;;;;;;;5070032;28;20071;-78
2023/09/27 07:36:03;;;;;;;34.97;28.60;;;;;;;;;;5067579;28;20074;-78
2023/09/27 07:38:29;;;;;;;35.67;29.05;;;;;;;;;;5049925;28;20052;-81
2023/09/27 07:40:56;;;;;;;35.38;28.13;;;;;;;;;;5062423;28;20508;-74
2023/09/27 07:43:22;;;;;;;36.15;28.98;;;;;;;;;;5050187;28;20555;-78
2023/09/27 07:45:48;;;;;;;37.15;28.75;;;;;;;;;;5068891;28;20044;-78
2023/09/27 07:48:14;;;;;;;39.60;29.90;;;;;;;;;;5050328;28;20060;-78
2023/09/27 07:50:40;;;;;;;37.55;28.75;;;;;;;;;;5049870;28;20048;-77
2023/09/27 07:53:08;;;;;;;36.33;27.73;;;;;;;;;;5059615;28;20099;-78
2023/09/27 07:55:50;;;;;;;34.65;27.05;;;;;;;;;;5050347;28;20082;-79
2023/09/27 07:58:16;;;;;;;35.05;27.05;;;;;;;;;;5016609;28;20399;-79
2023/09/27 08:00:43;;;;;;;36.60;27.80;;;;;;;;;;5063798;28;20044;-78
2023/09/27 08:03:10;;;;;;;32.03;26.80;;;;;;;;;;5066597;28;20509;-79
2023/09/27 08:05:42;;;;;;;33.30;25.17;;;;;;;;;;5051228;28;20470;-78
2023/09/27 08:08:12;;;;;;;35.80;27.38;;;;;;;;;;5051358;28;20048;-78
2023/09/27 08:10:43;;;;;;;34.42;25.58;;;;;;;;;;5052105;28;20052;-78
2023/09/27 08:13:10;;;;;;;34.25;26.98;;;;;;;;;;5046466;28;21683;-78
2023/09/27 08:15:36;;;;;;;34.67;27.45;;;;;;;;;;5062064;28;20053;-78
2023/09/27 08:18:02;;;;;;;34.47;26.60;;;;;;;;;;5053950;28;20045;-78
2023/09/27 08:20:28;;;;;;;34.95;26.05;;;;;;;;;;5053531;28;20063;-78
2023/09/27 08:22:57;;;;;;;33.20;25.52;;;;;;;;;;5053835;28;20102;-78
2023/09/27 08:25:23;;;;;;;38.08;26.08;;;;;;;;;;5071513;28;20403;-78
2023/09/27 08:27:50;;;;;;;35.60;24.48;;;;;;;;;;5049537;28;20040;-79
2023/09/27 08:30:16;;;;;;;35.95;25.17;;;;;;;;;;5053557;28;20048;-78
2023/09/27 08:32:43;;;;;;;31.70;25.17;;;;;;;;;;5067061;28;20095;-79
2023/09/27 08:35:09;;;;;;;30.02;22.63;;;;;;;;;;5050490;28;20399;-78
2023/09/27 08:37:35;;;;;;;31.90;23.42;;;;;;;;;;5051407;28;20041;-78
2023/09/27 08:40:05;;;;;;;32.38;24.05;;;;;;;;;;5055164;28;20044;-78
2023/09/27 08:42:32;;;;;;;30.40;23.30;;;;;;;;;;5052185;28;20064;-77
2023/09/27 08:45:00;;;;;;;30.80;23.10;;;;;;;;;;5054230;28;20049;-79
2023/09/27 08:47:27;;;;;;;32.55;21.98;;;;;;;;;;5053718;28;20507;-79
2023/09/27 08:49:57;;;;;;;29.48;24.15;;;;;;;;;;5053893;28;20053;-78
2023/09/27 08:52:24;;;;;;;29.00;23.13;;;;;;;;;;5052695;28;20082;-78
2023/09/27 08:54:51;;;;;;;29.73;22.65;;;;;;;;;;5054890;28;20052;-79
2023/09/27 08:57:17;;;;;;;31.10;22.17;;;;;;;;;;5053892;28;20059;-78
2023/09/27 08:59:44;;;;;;;31.25;22.33;;;;;;;;;;5053135;28;20384;-79
2023/09/27 09:02:10;;;;;;;31.52;23.08;;;;;;;;;;5067995;28;20487;-77
2023/09/27 09:04:36;;;;;;;30.73;23.05;;;;;;;;;;5067890;28;20044;-77
2023/09/27 09:07:03;;;;;;;33.30;22.70;;;;;;;;;;5051731;28;20052;-77
2023/09/27 09:09:30;;;;;;;27.27;22.00;;;;;;;;;;5065262;28;20044;-76
2023/09/27 09:11:58;;;;;;;34.30;23.42;;;;;;;;;;5039832;28;20048;-76
2023/09/27 09:14:54;;;;;;;32.05;23.30;;;;;;;;;;5052600;28;20044;-77
2023/09/27 09:17:25;;;;;;;29.20;23.30;;;;;;;;;;5034804;28;20049;-77
2023/09/27 09:20:17;;;;;;;33.22;23.33;;;;;;;;;;5052149;28;20091;-77
2023/09/27 09:22:44;;;;;;;29.85;21.52;;;;;;;;;;5053019;28;20123;-77
2023/09/27 09:25:10;;;;;;;31.20;22.23;;;;;;;;;;5053251;28;20054;-77
2023/09/27 09:27:37;;;;;;;32.55;21.70;;;;;;;;;;5055295;28;20109;-78
2023/09/27 09:30:06;;;;;;;27.95;20.67;;;;;;;;;;5054191;28;20059;-78
2023/09/27 09:32:33;;;;;;;37.55;23.52;;;;;;;;;;5050880;28;20422;-77
2023/09/27 09:35:00;;;;;;;30.10;21.90;;;;;;;;;;5047353;28;20044;-77
2023/09/27 09:37:28;;;;;;;30.60;21.98;;;;;;;;;;5039402;28;20040;-78
2023/09/27 09:40:05;;;;;;;31.27;21.02;;;;;;;;;;5054191;28;20049;-77
2023/09/27 09:42:32;;;;;;;34.72;22.35;;;;;;;;;;5054836;28;20051;-77
2023/09/27 09:44:59;;;;;;;31.80;21.83;;;;;;;;;;5069593;28;20111;-77
2023/09/27 09:47:28;;;;;;;33.63;22.80;;;;;;;;;;5050388;28;20067;-77
2023/09/27 09:49:54;;;;;;;33.15;21.15;;;;;;;;;;5050321;28;20557;-78
2023/09/27 09:52:22;;;;;;;28.13;20.77;;;;;;;;;;5071842;28;20087;-77
2023/09/27 09:54:49;;;;;;;35.55;22.55;;;;;;;;;;5052993;28;20563;-77
2023/09/27 09:57:18;;;;;;;30.60;22.10;;;;;;;;;;5054078;28;20032;-78
2023/09/27 10:00:25;;;;;;;32.70;21.52;;;;;;;;;;5050911;28;20141;-77
2023/09/27 10:02:53;;;;;;;30.33;22.25;;;;;;;;;;5047554;28;20051;-78
2023/09/27 10:05:22;;;;;;;34.38;23.55;;;;;;;;;;5045669;28;20750;-78
2023/09/27 10:07:49;;;;;;;34.03;24.70;;;;;;;;;;5052902;28;20055;-78
2023/09/27 10:10:19;;;;;;;30.38;25.55;;;;;;;;;;5045746;28;20555;-78
2023/09/27 10:12:50;;;;;;;57.20;29.90;;;;;;;;;;5071587;28;20041;-78
2023/09/27 10:15:17;;;;;;;35.55;26.63;;;;;;;;;;5046492;28;20048;-77
2023/09/27 10:17:43;;;;;;;35.13;26.33;;;;;;;;;;5050781;28;20075;-77
2023/09/27 10:20:22;;;;;;;31.58;24.42;;;;;;;;;;5068659;28;20087;-77
2023/09/27 10:22:49;;;;;;;34.33;24.90;;;;;;;;;;5067358;28;20419;-77
2023/09/27 10:25:24;;;;;;;35.25;25.13;;;;;;;;;;5056866;28;20319;-77
2023/09/27 10:28:02;;;;;;;34.65;25.13;;;;;;;;;;5040768;28;20036;-77
2023/09/27 10:30:40;;;;;;;35.85;25.83;;;;;;;;;;5057391;28;20048;-77
2023/09/27 10:33:15;;;;;;;30.75;24.20;;;;;;;;;;5061746;28;20127;-78
2023/09/27 10:35:46;;;;;;;32.25;24.83;;;;;;;;;;5048987;28;20055;-78
2023/09/27 10:38:12;;;;;;;31.35;26.70;;;;;;;;;;5060190;28;20045;-78
2023/09/27 10:40:47;;;;;;;34.60;26.58;;;;;;;;;;5047081;28;20139;-78
2023/09/27 10:43:32;;;;;;;29.05;24.08;;;;;;;;;;5055188;28;20032;-78
2023/09/27 10:45:58;;;;;;;31.17;21.77;;;;;;;;;;5066456;28;20048;-78
2023/09/27 10:48:25;;;;;;;28.00;20.80;;;;;;;;;;5070367;28;20488;-78
2023/09/27 10:50:58;;;;;;;27.15;21.83;;;;;;;;;;5063643;28;20036;-75
2023/09/27 10:53:27;;;;;;;28.73;21.27;;;;;;;;;;5069157;28;20085;-77
2023/09/27 10:55:54;;;;;;;28.73;20.05;;;;;;;;;;5047490;28;20051;-77
2023/09/27 10:58:20;;;;;;;21.40;18.63;;;;;;;;;;5070316;28;20053;-77
2023/09/27 11:01:01;;;;;;;20.90;17.75;;;;;;;;;;5055423;28;20044;-77
2023/09/27 11:03:29;;;;;;;25.05;18.05;;;;;;;;;;5056056;28;20057;-77
2023/09/27 11:05:56;;;;;;;27.02;17.75;;;;;;;;;;5066207;28;20055;-77
2023/09/27 11:08:23;;;;;;;20.67;17.77;;;;;;;;;;5066716;28;20052;-77
2023/09/27 11:10:52;;;;;;;24.90;19.30;;;;;;;;;;5053507;28;20078;-78
2023/09/27 11:13:19;;;;;;;26.63;18.30;;;;;;;;;;5050476;28;20064;-78
2023/09/27 11:15:45;;;;;;;24.77;18.88;;;;;;;;;;5048729;28;20048;-78
2023/09/27 11:18:11;;;;;;;24.20;18.15;;;;;;;;;;5055556;28;20040;-77
2023/09/27 11:20:39;;;;;;;22.33;16.42;;;;;;;;;;5070906;28;20486;-77
2023/09/27 11:23:05;;;;;;;25.13;17.13;;;;;;;;;;5050908;28;20065;-78
2023/09/27 11:25:32;;;;;;;28.17;18.02;;;;;;;;;;5049501;28;20131;-78
2023/09/27 11:27:58;;;;;;;19.30;14.88;;;;;;;;;;5048232;28;20542;-79
2023/09/27 11:30:30;;;;;;;22.05;17.17;;;;;;;;;;5067558;28;20576;-79
2023/09/27 11:32:57;;;;;;;21.20;14.52;;;;;;;;;;5073112;28;20052;-79
2023/09/27 11:35:26;;;;;;;18.05;11.88;;;;;;;;;;5054024;28;20582;-78
2023/09/27 11:38:11;;;;;;;17.45;10.75;;;;;;;;;;5053746;28;20079;-78
2023/09/27 11:40:38;;;;;;;15.40;10.27;;;;;;;;;;4975027;28;20148;-79
2023/09/27 11:43:07;;;;;;;18.83;10.85;;;;;;;;;;5057599;28;20039;-78
2023/09/27 11:45:49;;;;;;;18.05;12.13;;;;;;;;;;5048654;28;20053;-78
2023/09/27 11:48:31;;;;;;;14.40;10.50;;;;;;;;;;5048835;28;20051;-79
2023/09/27 11:50:58;;;;;;;12.52;8.48;;;;;;;;;;5051056;28;20052;-78
2023/09/27 11:53:27;;;;;;;16.58;9.15;;;;;;;;;;5055370;28;20436;-78
2023/09/27 11:55:59;;;;;;;14.45;9.27;;;;;;;;;;5064225;28;20134;-79
2023/09/27 11:58:25;;;;;;;13.35;9.25;;;;;;;;;;5049213;28;20080;-79
2023/09/27 12:00:51;;;;;;;13.77;9.32;;;;;;;;;;5039200;28;20044;-78
2023/09/27 12:03:17;;;;;;;13.23;8.10;;;;;;;;;;5054861;28;20586;-78
2023/09/27 12:05:44;;;;;;;13.00;7.43;;;;;;;;;;5058992;28;20080;-78
2023/09/27 12:08:10;;;;;;;14.52;7.60;;;;;;;;;;5047701;28;20056;-77
2023/09/27 12:10:36;;;;;;;17.42;8.00;;;;;;;;;;5073346;28;20044;-77
2023/09/27 12:13:02;;;;;;;14.38;8.00;;;;;;;;;;5056018;28;20045;-78
2023/09/27 12:15:29;;;;;;;14.10;7.70;;;;;;;;;;5063119;28;20044;-78
2023/09/27 12:17:55;;;;;;;12.80;7.20;;;;;;;;;;5059745;28;20036;-78
2023/09/27 12:20:21;;;;;;;15.23;8.10;;;;;;;;;;5044290;28;20092;-78
2023/09/27 12:22:48;;;;;;;11.50;7.65;;;;;;;;;;5046373;28;20059;-78
2023/09/27 12:25:14;;;;;;;10.10;6.53;;;;;;;;;;5052325;28;20040;-78
2023/09/27 12:27:40;;;;;;;10.48;7.10;;;;;;;;;;5048033;28;20431;-78
2023/09/27 12:30:08;;;;;;;11.82;6.15;;;;;;;;;;5040140;28;20044;-77
2023/09/27 12:32:34;;;;;;;8.07;5.82;;;;;;;;;;5048750;28;20047;-79
2023/09/27 12:35:00;;;;;;;11.20;6.43;;;;;;;;;;5047420;28;20049;-78
2023/09/27 12:37:26;;;;;;;8.65;5.75;;;;;;;;;;5049114;28;20052;-76
2023/09/27 12:39:55;;;;;;;11.05;6.43;;;;;;;;;;5039853;28;20124;-78
2023/09/27 12:42:26;;;;;;;13.55;6.47;;;;;;;;;;5045041;28;20107;-78
2023/09/27 12:44:52;;;;;;;12.32;6.30;;;;;;;;;;5057923;28;20053;-78
2023/09/27 12:47:18;;;;;;;9.23;5.88;;;;;;;;;;5046868;28;20477;-79
2023/09/27 12:49:44;;;;;;;13.07;6.90;;;;;;;;;;5043678;28;20160;-79
2023/09/27 12:52:10;;;;;;;10.15;6.50;;;;;;;;;;5050314;28;20132;-78
2023/09/27 12:54:36;;;;;;;10.15;6.18;;;;;;;;;;5045909;28;20041;-78
2023/09/27 12:57:03;;;;;;;9.05;5.95;;;;;;;;;;5033456;28;20041;-77
2023/09/27 12:59:29;;;;;;;11.27;6.13;;;;;;;;;;5045152;28;20049;-77
2023/09/27 13:01:59;;;;;;;11.43;6.43;;;;;;;;;;5049096;28;20550;-78
2023/09/27 13:04:25;;;;;;;9.10;5.78;;;;;;;;;;5051328;28;20084;-78
2023/09/27 13:06:51;;;;;;;10.43;5.90;;;;;;;;;;5048175;28;20053;-77
2023/09/27 13:09:22;;;;;;;10.93;5.82;;;;;;;;;;5051401;28;20443;-78
2023/09/27 13:11:49;;;;;;;8.98;5.85;;;;;;;;;;5049499;28;20515;-78
2023/09/27 13:14:15;;;;;;;9.38;5.40;;;;;;;;;;5039198;28;20072;-76
2023/09/27 13:16:44;;;;;;;6.53;5.07;;;;;;;;;;5044814;28;20041;-77
2023/09/27 13:19:10;;;;;;;10.70;5.65;;;;;;;;;;5043653;28;20144;-77
2023/09/27 13:21:36;;;;;;;8.50;5.13;;;;;;;;;;5038380;28;20095;-76
2023/09/27 13:24:02;;;;;;;11.90;6.10;;;;;;;;;;5045306;28;20046;-77
2023/09/27 13:26:29;;;;;;;8.43;5.32;;;;;;;;;;5045414;28;20040;-77
2023/09/27 13:28:55;;;;;;;10.98;5.10;;;;;;;;;;5039930;28;20040;-77
2023/09/27 13:31:21;;;;;;;7.10;5.22;;;;;;;;;;5044456;28;20085;-77
2023/09/27 13:33:47;;;;;;;6.25;4.78;;;;;;;;;;5040216;28;20114;-77
2023/09/27 13:36:19;;;;;;;7.70;5.32;;;;;;;;;;5044644;28;20489;-77
2023/09/27 13:38:46;;;;;;;8.80;4.90;;;;;;;;;;5039478;28;20532;-77
2023/09/27 13:41:14;;;;;;;8.30;4.30;;;;;;;;;;5044102;28;20055;-77
2023/09/27 13:43:40;;;;;;;7.30;4.30;;;;;;;;;;5037237;28;20045;-77
2023/09/27 13:46:06;;;;;;;6.47;3.97;;;;;;;;;;5041849;28;20558;-77
2023/09/27 13:48:34;;;;;;;6.80;4.57;;;;;;;;;;5034154;28;20052;-77
2023/09/27 13:51:00;;;;;;;8.00;4.40;;;;;;;;;;5050046;28;20117;-77
2023/09/27 13:53:26;;;;;;;6.68;4.05;;;;;;;;;;5052355;28;20140;-77
2023/09/27 13:55:52;;;;;;;7.22;4.38;;;;;;;;;;5051449;28;20615;-77
2023/09/27 13:58:18;;;;;;;7.05;4.20;;;;;;;;;;5035912;28;20076;-77
2023/09/27 14:00:44;;;;;;;7.80;4.60;;;;;;;;;;5049943;28;20052;-77
2023/09/27 14:03:10;;;;;;;7.72;4.40;;;;;;;;;;5045700;28;20041;-77
2023/09/27 14:05:36;;;;;;;9.27;4.50;;;;;;;;;;5047015;28;20044;-77
2023/09/27 14:08:02;;;;;;;6.85;4.50;;;;;;;;;;5050863;28;20049;-77
2023/09/27 14:10:28;;;;;;;7.07;4.95;;;;;;;;;;5051126;28;20404;-77
2023/09/27 14:12:54;;;;;;;8.30;4.82;;;;;;;;;;5044519;28;20037;-77
2023/09/27 14:15:21;;;;;;;6.80;4.93;;;;;;;;;;5050759;28;20053;-77
2023/09/27 14:17:47;;;;;;;8.40;4.65;;;;;;;;;;5047172;28;20045;-77
2023/09/27 14:20:15;;;;;;;8.98;4.72;;;;;;;;;;5055327;28;20057;-76
2023/09/27 14:22:41;;;;;;;8.48;5.38;;;;;;;;;;5051706;28;20051;-77